sensor_id;sensor_type;location;lat;lon;timestamp;pressure;altitude;pressure_sealevel;temperature;humidity
20624;BME280;10471;42.736;23.346;2023-04-08T00:00:00;95664.75;;;5.43;100.00
20624;BME280;10471;42.736;23.346;2023-04-08T00:02:25;95670.78;;;5.43;100.00
20624;BME280;10471;42.736;23.346;2023-04-08T00:04:51;95665.78;;;5.42;100.00
20624;BME280;10471;42.736;23.346;2023-04-08T00:07:16;95661.44;;;5.47;100.00
20624;BME280;10471;42.736;23.346;2023-04-08T00:09:42;95669.06;;;5.49;100.00
20624;BME280;10471;42.736;23.346;2023-04-08T00:12:07;95670.84;;;5.48;100.00
20624;BME280;10471;42.736;23.346;2023-04-08T00:14:32;95667.06;;;5.39;100.00
20624;BME280;10471;42.736;23.346;2023-04-08T00:16:58;95673.22;;;5.33;100.00
20624;BME280;10471;42.736;23.346;2023-04-08T00:19:23;95675.75;;;5.28;100.00
20624;BME280;10471;42.736;23.346;2023-04-08T00:21:49;95662.91;;;5.27;100.00
20624;BME280;10471;42.736;23.346;2023-04-08T00:24:15;95663.06;;;5.20;100.00
20624;BME280;10471;42.736;23.346;2023-04-08T00:26:40;95665.91;;;5.19;100.00
20624;BME280;10471;42.736;23.346;2023-04-08T00:29:06;95662.59;;;5.23;100.00
20624;BME280;10471;42.736;23.346;2023-04-08T00:31:31;95667.03;;;5.23;100.00
20624;BME280;10471;42.736;23.346;2023-04-08T00:33:57;95671.44;;;5.22;100.00
20624;BME280;10471;42.736;23.346;2023-04-08T00:36:22;95666.69;;;5.19;100.00
20624;BME280;10471;42.736;23.346;2023-04-08T00:38:47;95670.34;;;5.18;100.00
20624;BME280;10471;42.736;23.346;2023-04-08T00:41:13;95665.50;;;5.11;100.00
20624;BME280;10471;42.736;23.346;2023-04-08T00:43:38;95664.44;;;5.12;100.00
20624;BME280;10471;42.736;23.346;2023-04-08T00:46:04;95665.50;;;5.11;100.00
20624;BME280;10471;42.736;23.346;2023-04-08T00:48:30;95665.50;;;5.11;100.00
20624;BME280;10471;42.736;23.346;2023-04-08T00:50:56;95676.50;;;5.13;100.00
20624;BME280;10471;42.736;23.346;2023-04-08T00:53:22;95677.75;;;5.10;100.00
20624;BME280;10471;42.736;23.346;2023-04-08T00:55:47;95673.34;;;5.11;100.00
20624;BME280;10471;42.736;23.346;2023-04-08T00:58:13;95676.97;;;5.10;100.00
20624;BME280;10471;42.736;23.346;2023-04-08T01:00:42;95675.72;;;5.12;100.00
20624;BME280;10471;42.736;23.346;2023-04-08T01:03:20;95668.47;;;5.03;100.00
20624;BME280;10471;42.736;23.346;2023-04-08T01:06:12;95673.22;;;5.06;100.00
20624;BME280;10471;42.736;23.346;2023-04-08T01:08:40;95681.53;;;5.03;100.00
20624;BME280;10471;42.736;23.346;2023-04-08T01:11:09;95672.69;;;5.04;100.00
20624;BME280;10471;42.736;23.346;2023-04-08T01:13:38;95676.53;;;5.01;100.00
20624;BME280;10471;42.736;23.346;2023-04-08T01:16:05;95671.56;;;5.00;100.00
20624;BME280;10471;42.736;23.346;2023-04-08T01:18:34;95669.31;;;4.92;100.00
20624;BME280;10471;42.736;23.346;2023-04-08T01:21:00;95673.84;;;4.85;100.00
20624;BME280;10471;42.736;23.346;2023-04-08T01:23:42;95677.19;;;4.80;100.00
20624;BME280;10471;42.736;23.346;2023-04-08T01:26:12;95677.28;;;4.85;100.00
20624;BME280;10471;42.736;23.346;2023-04-08T01:28:46;95666.25;;;4.83;100.00
20624;BME280;10471;42.736;23.346;2023-04-08T01:31:14;95675.44;;;4.86;100.00
20624;BME280;10471;42.736;23.346;2023-04-08T01:33:40;95670.72;;;4.83;100.00
20624;BME280;10471;42.736;23.346;2023-04-08T01:36:07;95668.63;;;4.85;100.00
20624;BME280;10471;42.736;23.346;2023-04-08T01:38:35;95675.00;;;4.89;100.00
20624;BME280;10471;42.736;23.346;2023-04-08T01:41:01;95669.31;;;4.92;100.00
20624;BME280;10471;42.736;23.346;2023-04-08T01:43:28;95670.41;;;4.96;100.00
20624;BME280;10471;42.736;23.346;2023-04-08T01:45:56;95669.72;;;5.00;100.00
20624;BME280;10471;42.736;23.346;2023-04-08T01:48:23;95675.28;;;5.04;100.00
20624;BME280;10471;42.736;23.346;2023-04-08T01:50:48;95684.22;;;5.08;100.00
20624;BME280;10471;42.736;23.346;2023-04-08T01:53:16;95680.59;;;5.09;100.00
20624;BME280;10471;42.736;23.346;2023-04-08T01:55:42;95680.59;;;5.09;100.00
20624;BME280;10471;42.736;23.346;2023-04-08T01:58:10;95679.59;;;5.10;100.00
20624;BME280;10471;42.736;23.346;2023-04-08T02:00:38;95692.16;;;5.13;100.00
20624;BME280;10471;42.736;23.346;2023-04-08T02:03:05;95689.00;;;5.11;100.00
20624;BME280;10471;42.736;23.346;2023-04-08T02:05:33;95692.16;;;5.13;100.00
20624;BME280;10471;42.736;23.346;2023-04-08T02:07:58;95694.69;;;5.08;100.00
20624;BME280;10471;42.736;23.346;2023-04-08T02:10:24;95701.50;;;5.09;100.00
20624;BME280;10471;42.736;23.346;2023-04-08T02:12:50;95698.88;;;5.09;100.00
20624;BME280;10471;42.736;23.346;2023-04-08T02:15:15;95701.50;;;5.09;100.00
20624;BME280;10471;42.736;23.346;2023-04-08T02:17:47;95703.09;;;5.10;100.00
20624;BME280;10471;42.736;23.346;2023-04-08T02:20:23;95704.09;;;5.09;100.00
20624;BME280;10471;42.736;23.346;2023-04-08T02:25:55;95707.16;;;5.06;100.00
20624;BME280;10471;42.736;23.346;2023-04-08T02:28:21;95704.53;;;5.06;100.00
20624;BME280;10471;42.736;23.346;2023-04-08T02:30:49;95706.38;;;5.05;100.00
20624;BME280;10471;42.736;23.346;2023-04-08T02:33:18;95709.31;;;5.09;100.00
20624;BME280;10471;42.736;23.346;2023-04-08T02:35:47;95707.31;;;4.99;100.00
20624;BME280;10471;42.736;23.346;2023-04-08T02:38:13;95705.50;;;5.00;100.00
20624;BME280;10471;42.736;23.346;2023-04-08T02:40:38;95701.22;;;4.94;100.00
20624;BME280;10471;42.736;23.346;2023-04-08T02:43:04;95697.09;;;4.98;100.00
20624;BME280;10471;42.736;23.346;2023-04-08T02:45:31;95702.56;;;4.96;100.00
20624;BME280;10471;42.736;23.346;2023-04-08T02:48:00;95704.44;;;5.01;100.00
20624;BME280;10471;42.736;23.346;2023-04-08T02:50:26;95695.06;;;5.00;100.00
20624;BME280;10471;42.736;23.346;2023-04-08T02:52:51;95703.19;;;5.03;100.00
20624;BME280;10471;42.736;23.346;2023-04-08T02:55:17;95700.81;;;5.02;100.00
20624;BME280;10471;42.736;23.346;2023-04-08T02:57:42;95704.44;;;5.01;100.00
20624;BME280;10471;42.736;23.346;2023-04-08T03:00:08;95696.41;;;5.02;100.00
20624;BME280;10471;42.736;23.346;2023-04-08T03:02:34;95696.19;;;5.04;100.00
20624;BME280;10471;42.736;23.346;2023-04-08T03:05:00;95700.03;;;5.01;100.00
20624;BME280;10471;42.736;23.346;2023-04-08T03:07:25;95699.91;;;5.08;100.00
20624;BME280;10471;42.736;23.346;2023-04-08T03:09:51;95705.13;;;5.08;100.00
20624;BME280;10471;42.736;23.346;2023-04-08T03:12:16;95704.09;;;5.09;100.00
20624;BME280;10471;42.736;23.346;2023-04-08T03:14:42;95696.25;;;5.09;100.00
20624;BME280;10471;42.736;23.346;2023-04-08T03:17:07;95706.72;;;5.09;100.00
20624;BME280;10471;42.736;23.346;2023-04-08T03:19:33;95691.03;;;5.09;100.00
20624;BME280;10471;42.736;23.346;2023-04-08T03:21:58;95690.03;;;5.10;100.00
20624;BME280;10471;42.736;23.346;2023-04-08T03:24:23;95697.84;;;5.10;100.00
20624;BME280;10471;42.736;23.346;2023-04-08T03:26:49;95697.53;;;5.06;100.00
20624;BME280;10471;42.736;23.346;2023-04-08T03:29:14;95699.22;;;5.01;100.00
20624;BME280;10471;42.736;23.346;2023-04-08T03:31:40;95700.38;;;5.05;100.00
20624;BME280;10471;42.736;23.346;2023-04-08T03:34:05;95698.78;;;5.04;100.00
20624;BME280;10471;42.736;23.346;2023-04-08T03:36:31;95701.50;;;5.09;100.00
20624;BME280;10471;42.736;23.346;2023-04-08T03:38:56;95709.31;;;5.09;100.00
20624;BME280;10471;42.736;23.346;2023-04-08T03:41:21;95709.91;;;5.11;100.00
20624;BME280;10471;42.736;23.346;2023-04-08T03:43:47;95704.00;;;5.04;100.00
20624;BME280;10471;42.736;23.346;2023-04-08T03:46:12;95704.78;;;5.04;100.00
20624;BME280;10471;42.736;23.346;2023-04-08T03:48:38;95706.38;;;5.05;100.00
20624;BME280;10471;42.736;23.346;2023-04-08T03:51:03;95704.00;;;5.04;100.00
20624;BME280;10471;42.736;23.346;2023-04-08T03:53:28;95708.91;;;5.00;100.00
20624;BME280;10471;42.736;23.346;2023-04-08T03:55:55;95709.22;;;5.04;100.00
20624;BME280;10471;42.736;23.346;2023-04-08T03:58:21;95708.22;;;5.05;100.00
20624;BME280;10471;42.736;23.346;2023-04-08T04:00:46;95704.00;;;5.04;100.00
20624;BME280;10471;42.736;23.346;2023-04-08T04:03:11;95700.03;;;5.01;100.00
20624;BME280;10471;42.736;23.346;2023-04-08T04:05:38;95696.41;;;5.02;100.00
20624;BME280;10471;42.736;23.346;2023-04-08T04:08:03;95701.31;;;4.99;100.00
20624;BME280;10471;42.736;23.346;2023-04-08T04:10:29;95697.34;;;4.96;100.00
20624;BME280;10471;42.736;23.346;2023-04-08T04:12:54;95701.31;;;4.99;100.00
20624;BME280;10471;42.736;23.346;2023-04-08T04:15:20;95701.31;;;4.99;100.00
20624;BME280;10471;42.736;23.346;2023-04-08T04:17:49;95711.75;;;4.99;100.00
20624;BME280;10471;42.736;23.346;2023-04-08T04:20:15;95704.94;;;4.98;100.00
20624;BME280;10471;42.736;23.346;2023-04-08T04:22:41;95714.34;;;4.99;100.00
20624;BME280;10471;42.736;23.346;2023-04-08T04:25:07;95711.75;;;4.99;100.00
20624;BME280;10471;42.736;23.346;2023-04-08T04:27:32;95720.13;;;5.01;100.00
20624;BME280;10471;42.736;23.346;2023-04-08T04:29:59;95720.69;;;5.03;100.00
20624;BME280;10471;42.736;23.346;2023-04-08T04:32:25;95719.69;;;5.04;100.00
20624;BME280;10471;42.736;23.346;2023-04-08T04:34:50;95725.22;;;5.07;100.00
20624;BME280;10471;42.736;23.346;2023-04-08T04:37:16;95720.00;;;5.07;100.00
20624;BME280;10471;42.736;23.346;2023-04-08T04:39:41;95723.72;;;5.11;100.00
20624;BME280;10471;42.736;23.346;2023-04-08T04:42:08;95723.72;;;5.11;100.00
20624;BME280;10471;42.736;23.346;2023-04-08T04:44:33;95726.69;;;5.15;100.00
20624;BME280;10471;42.736;23.346;2023-04-08T04:46:58;95726.19;;;5.18;100.00
20624;BME280;10471;42.736;23.346;2023-04-08T04:49:24;95726.69;;;5.15;100.00
20624;BME280;10471;42.736;23.346;2023-04-08T04:51:50;95715.75;;;5.18;100.00
20624;BME280;10471;42.736;23.346;2023-04-08T04:54:15;95718.13;;;5.19;100.00
20624;BME280;10471;42.736;23.346;2023-04-08T04:56:40;95724.50;;;5.23;100.00
20624;BME280;10471;42.736;23.346;2023-04-08T04:59:06;95721.41;;;5.26;100.00
20624;BME280;10471;42.736;23.346;2023-04-08T05:01:32;95713.09;;;5.29;100.00
20624;BME280;10471;42.736;23.346;2023-04-08T05:03:58;95716.59;;;5.34;100.00
20624;BME280;10471;42.736;23.346;2023-04-08T05:06:23;95722.50;;;5.41;100.00
20624;BME280;10471;42.736;23.346;2023-04-08T05:08:49;95726.75;;;5.47;100.00
20624;BME280;10471;42.736;23.346;2023-04-08T05:11:16;95731.03;;;5.53;100.00
20624;BME280;10471;42.736;23.346;2023-04-08T05:13:43;95729.31;;;5.59;100.00
20624;BME280;10471;42.736;23.346;2023-04-08T05:16:08;95722.34;;;5.64;100.00
20624;BME280;10471;42.736;23.346;2023-04-08T05:18:33;95723.53;;;5.73;100.00
20624;BME280;10471;42.736;23.346;2023-04-08T05:20:59;95719.56;;;5.82;100.00
20624;BME280;10471;42.736;23.346;2023-04-08T05:23:24;95729.09;;;5.88;100.00
20624;BME280;10471;42.736;23.346;2023-04-08T05:25:50;95730.09;;;5.87;100.00
20624;BME280;10471;42.736;23.346;2023-04-08T05:28:15;95730.72;;;5.94;100.00
20624;BME280;10471;42.736;23.346;2023-04-08T05:30:41;95724.09;;;6.03;100.00
20624;BME280;10471;42.736;23.346;2023-04-08T05:33:06;95726.53;;;6.09;100.00
20624;BME280;10471;42.736;23.346;2023-04-08T05:35:31;95726.44;;;6.21;100.00
20624;BME280;10471;42.736;23.346;2023-04-08T05:37:57;95720.69;;;6.19;100.00
20624;BME280;10471;42.736;23.346;2023-04-08T05:40:22;95727.09;;;6.28;100.00
20624;BME280;10471;42.736;23.346;2023-04-08T05:42:48;95734.94;;;6.28;100.00
20624;BME280;10471;42.736;23.346;2023-04-08T05:45:13;95728.09;;;6.43;100.00
20624;BME280;10471;42.736;23.346;2023-04-08T05:47:38;95734.84;;;6.55;100.00
20624;BME280;10471;42.736;23.346;2023-04-08T05:50:04;95731.06;;;6.68;100.00
20624;BME280;10471;42.736;23.346;2023-04-08T05:52:33;95729.44;;;6.83;100.00
20624;BME280;10471;42.736;23.346;2023-04-08T05:54:58;95726.16;;;6.93;100.00
20624;BME280;10471;42.736;23.346;2023-04-08T05:57:23;95716.34;;;7.05;100.00
20624;BME280;10471;42.736;23.346;2023-04-08T05:59:49;95720.31;;;7.07;100.00
20624;BME280;10471;42.736;23.346;2023-04-08T06:02:14;95714.16;;;7.18;100.00
20624;BME280;10471;42.736;23.346;2023-04-08T06:04:39;95723.28;;;7.15;100.00
20624;BME280;10471;42.736;23.346;2023-04-08T06:07:05;95724.25;;;7.31;100.00
20624;BME280;10471;42.736;23.346;2023-04-08T06:09:35;95712.41;;;7.28;100.00
20624;BME280;10471;42.736;23.346;2023-04-08T06:12:01;95713.56;;;7.37;100.00
20624;BME280;10471;42.736;23.346;2023-04-08T06:14:26;95711.03;;;7.47;100.00
20624;BME280;10471;42.736;23.346;2023-04-08T06:16:52;95720.34;;;7.60;100.00
20624;BME280;10471;42.736;23.346;2023-04-08T06:19:18;95718.41;;;7.77;100.00
20624;BME280;10471;42.736;23.346;2023-04-08T06:21:44;95722.22;;;7.90;100.00
20624;BME280;10471;42.736;23.346;2023-04-08T06:24:09;95715.47;;;7.99;100.00
20624;BME280;10471;42.736;23.346;2023-04-08T06:26:35;95720.75;;;8.04;100.00
20624;BME280;10471;42.736;23.346;2023-04-08T06:29:00;95727.13;;;8.13;100.00
20624;BME280;10471;42.736;23.346;2023-04-08T06:31:27;95721.94;;;8.18;100.00
20624;BME280;10471;42.736;23.346;2023-04-08T06:33:52;95724.44;;;8.35;100.00
20624;BME280;10471;42.736;23.346;2023-04-08T06:36:17;95721.66;;;8.51;100.00
20624;BME280;10471;42.736;23.346;2023-04-08T06:38:43;95718.09;;;8.67;100.00
20624;BME280;10471;42.736;23.346;2023-04-08T06:41:08;95716.84;;;8.79;100.00
20624;BME280;10471;42.736;23.346;2023-04-08T06:43:34;95719.19;;;8.81;100.00
20624;BME280;10471;42.736;23.346;2023-04-08T06:46:00;95719.78;;;8.88;100.00
20624;BME280;10471;42.736;23.346;2023-04-08T06:48:26;95724.50;;;8.91;100.00
20624;BME280;10471;42.736;23.346;2023-04-08T06:50:59;95720.34;;;9.00;100.00
20624;BME280;10471;42.736;23.346;2023-04-08T06:53:26;95725.13;;;9.08;100.00
20624;BME280;10471;42.736;23.346;2023-04-08T06:55:54;95727.25;;;9.20;100.00
20624;BME280;10471;42.736;23.346;2023-04-08T06:58:19;95721.53;;;9.28;100.00
20624;BME280;10471;42.736;23.346;2023-04-08T07:00:45;95723.09;;;9.24;100.00
20624;BME280;10471;42.736;23.346;2023-04-08T07:03:11;95723.66;;;9.41;100.00
20624;BME280;10471;42.736;23.346;2023-04-08T07:05:37;95731.84;;;9.55;100.00
20624;BME280;10471;42.736;23.346;2023-04-08T07:08:03;95727.41;;;9.65;100.00
20624;BME280;10471;42.736;23.346;2023-04-08T07:10:28;95725.34;;;9.82;100.00
20624;BME280;10471;42.736;23.346;2023-04-08T07:12:53;95726.91;;;9.93;100.00
20624;BME280;10471;42.736;23.346;2023-04-08T07:15:19;95725.13;;;10.13;100.00
20624;BME280;10471;42.736;23.346;2023-04-08T07:17:45;95730.66;;;10.07;100.00
20624;BME280;10471;42.736;23.346;2023-04-08T07:20:11;95723.81;;;10.06;100.00
20624;BME280;10471;42.736;23.346;2023-04-08T07:22:38;95730.13;;;10.10;100.00
20624;BME280;10471;42.736;23.346;2023-04-08T07:25:03;95733.28;;;10.17;100.00
20624;BME280;10471;42.736;23.346;2023-04-08T07:27:29;95739.59;;;10.31;100.00
20624;BME280;10471;42.736;23.346;2023-04-08T07:29:54;95732.25;;;10.28;100.00
20624;BME280;10471;42.736;23.346;2023-04-08T07:32:20;95728.00;;;10.42;100.00
20624;BME280;10471;42.736;23.346;2023-04-08T07:34:46;95739.59;;;10.55;100.00
20624;BME280;10471;42.736;23.346;2023-04-08T07:37:11;95743.28;;;10.69;100.00
20624;BME280;10471;42.736;23.346;2023-04-08T07:39:37;95734.31;;;10.75;98.46
20624;BME280;10471;42.736;23.346;2023-04-08T07:42:02;95749.31;;;10.70;99.18
20624;BME280;10471;42.736;23.346;2023-04-08T07:44:27;95743.28;;;10.74;97.38
20624;BME280;10471;42.736;23.346;2023-04-08T07:46:53;95750.63;;;10.82;96.08
20624;BME280;10471;42.736;23.346;2023-04-08T07:49:18;95741.91;;;10.87;94.38
20624;BME280;10471;42.736;23.346;2023-04-08T07:51:43;95750.88;;;10.86;95.10
20624;BME280;10471;42.736;23.346;2023-04-08T07:54:09;95751.44;;;10.83;96.71
20624;BME280;10471;42.736;23.346;2023-04-08T07:56:36;95758.50;;;10.97;95.03
20624;BME280;10471;42.736;23.346;2023-04-08T07:59:05;95759.56;;;11.01;93.82
20624;BME280;10471;42.736;23.346;2023-04-08T08:01:30;95758.47;;;11.02;92.82
20624;BME280;10471;42.736;23.346;2023-04-08T08:03:58;95757.94;;;11.10;90.52
20624;BME280;10471;42.736;23.346;2023-04-08T08:06:24;95768.50;;;11.05;93.79
20624;BME280;10471;42.736;23.346;2023-04-08T08:08:50;95771.13;;;11.15;90.48
20624;BME280;10471;42.736;23.346;2023-04-08T08:11:15;95770.63;;;10.98;90.84
20624;BME280;10471;42.736;23.346;2023-04-08T08:13:41;95765.56;;;11.21;91.26
20624;BME280;10471;42.736;23.346;2023-04-08T08:16:06;95768.91;;;11.47;90.08
20624;BME280;10471;42.736;23.346;2023-04-08T08:18:35;95766.25;;;11.57;88.49
20624;BME280;10471;42.736;23.346;2023-04-08T08:21:01;95770.53;;;11.28;84.63
20624;BME280;10471;42.736;23.346;2023-04-08T08:23:26;95768.13;;;11.36;88.44
20624;BME280;10471;42.736;23.346;2023-04-08T08:26:02;95773.50;;;11.11;86.49
20624;BME280;10471;42.736;23.346;2023-04-08T08:28:28;95759.53;;;11.11;88.92
20624;BME280;10471;42.736;23.346;2023-04-08T08:30:53;95767.47;;;11.06;91.38
20624;BME280;10471;42.736;23.346;2023-04-08T08:33:19;95758.66;;;11.30;88.71
20624;BME280;10471;42.736;23.346;2023-04-08T08:35:44;95769.97;;;11.51;87.73
20624;BME280;10471;42.736;23.346;2023-04-08T08:38:10;95764.53;;;11.80;85.74
20624;BME280;10471;42.736;23.346;2023-04-08T08:40:37;95763.31;;;12.06;85.57
20624;BME280;10471;42.736;23.346;2023-04-08T08:43:03;95764.28;;;12.20;81.47
20624;BME280;10471;42.736;23.346;2023-04-08T08:45:29;95768.53;;;12.16;82.24
20624;BME280;10471;42.736;23.346;2023-04-08T08:47:55;95764.16;;;12.40;78.68
20624;BME280;10471;42.736;23.346;2023-04-08T08:50:20;95769.50;;;12.30;77.53
20624;BME280;10471;42.736;23.346;2023-04-08T08:52:50;95763.13;;;12.36;80.23
20624;BME280;10471;42.736;23.346;2023-04-08T08:55:19;95759.25;;;12.57;82.45
20624;BME280;10471;42.736;23.346;2023-04-08T08:57:45;95759.72;;;12.64;79.37
20624;BME280;10471;42.736;23.346;2023-04-08T09:00:11;95765.38;;;12.81;76.94
20624;BME280;10471;42.736;23.346;2023-04-08T09:02:40;95764.38;;;12.77;77.96
20624;BME280;10471;42.736;23.346;2023-04-08T09:05:06;95765.47;;;12.71;76.93
20624;BME280;10471;42.736;23.346;2023-04-08T09:07:34;95761.84;;;12.62;77.29
20624;BME280;10471;42.736;23.346;2023-04-08T09:10:01;95761.72;;;12.77;78.02
20624;BME280;10471;42.736;23.346;2023-04-08T09:12:27;95767.06;;;12.72;76.70
20624;BME280;10471;42.736;23.346;2023-04-08T09:15:08;95773.44;;;12.66;75.57
20624;BME280;10471;42.736;23.346;2023-04-08T09:17:38;95774.47;;;12.70;76.86
20624;BME280;10471;42.736;23.346;2023-04-08T09:20:09;95766.16;;;12.81;76.39
20624;BME280;10471;42.736;23.346;2023-04-08T09:25:31;95768.53;;;12.83;78.62
20624;BME280;10471;42.736;23.346;2023-04-08T09:27:57;95769.19;;;12.70;78.23
20624;BME280;10471;42.736;23.346;2023-04-08T09:30:24;95757.44;;;12.52;77.04
20624;BME280;10471;42.736;23.346;2023-04-08T09:32:54;95769.88;;;12.80;76.35
20624;BME280;10471;42.736;23.346;2023-04-08T09:35:21;95755.59;;;13.09;72.71
20624;BME280;10471;42.736;23.346;2023-04-08T09:37:47;95759.03;;;13.33;71.64
20624;BME280;10471;42.736;23.346;2023-04-08T09:40:13;95761.38;;;13.58;72.09
20624;BME280;10471;42.736;23.346;2023-04-08T09:42:43;95753.69;;;13.80;75.08
20624;BME280;10471;42.736;23.346;2023-04-08T09:45:11;95752.06;;;14.21;70.48
20624;BME280;10471;42.736;23.346;2023-04-08T09:47:55;95752.50;;;14.28;71.71
20624;BME280;10471;42.736;23.346;2023-04-08T09:50:32;95748.78;;;14.60;70.49
20624;BME280;10471;42.736;23.346;2023-04-08T09:53:08;95745.34;;;14.92;67.09
20624;BME280;10471;42.736;23.346;2023-04-08T09:55:35;95745.59;;;15.22;65.39
20624;BME280;10471;42.736;23.346;2023-04-08T09:58:15;95733.72;;;15.01;63.40
20624;BME280;10471;42.736;23.346;2023-04-08T10:00:46;95738.38;;;14.64;64.26
20624;BME280;10471;42.736;23.346;2023-04-08T10:05:53;95729.06;;;14.66;65.11
20624;BME280;10471;42.736;23.346;2023-04-08T10:08:21;95728.72;;;14.54;66.91
20624;BME280;10471;42.736;23.346;2023-04-08T10:10:47;95726.56;;;14.56;66.29
20624;BME280;10471;42.736;23.346;2023-04-08T10:13:13;95725.97;;;14.46;63.60
20624;BME280;10471;42.736;23.346;2023-04-08T10:15:39;95718.44;;;14.35;67.89
20624;BME280;10471;42.736;23.346;2023-04-08T10:23:01;95719.94;;;13.85;67.29
20624;BME280;10471;42.736;23.346;2023-04-08T10:27:57;95705.19;;;14.66;60.32
20624;BME280;10471;42.736;23.346;2023-04-08T10:32:54;95707.78;;;14.98;63.87
20624;BME280;10471;42.736;23.346;2023-04-08T10:35:34;95706.16;;;14.70;59.47
20624;BME280;10471;42.736;23.346;2023-04-08T10:38:00;95703.72;;;14.42;60.83
20624;BME280;10471;42.736;23.346;2023-04-08T10:40:27;95697.81;;;14.63;63.69
20624;BME280;10471;42.736;23.346;2023-04-08T10:42:56;95697.63;;;14.73;62.48
20624;BME280;10471;42.736;23.346;2023-04-08T10:45:22;95705.94;;;14.53;59.44
20624;BME280;10471;42.736;23.346;2023-04-08T10:47:48;95698.72;;;14.41;60.62
20624;BME280;10471;42.736;23.346;2023-04-08T10:50:14;95691.88;;;14.21;63.12
20624;BME280;10471;42.736;23.346;2023-04-08T10:52:47;95695.22;;;14.45;62.30
20624;BME280;10471;42.736;23.346;2023-04-08T10:55:13;95692.78;;;14.48;61.39
20624;BME280;10471;42.736;23.346;2023-04-08T10:57:39;95690.50;;;14.55;60.47
20624;BME280;10471;42.736;23.346;2023-04-08T11:00:37;95682.41;;;14.79;61.20
20624;BME280;10471;42.736;23.346;2023-04-08T11:03:05;95680.06;;;15.04;60.66
20624;BME280;10471;42.736;23.346;2023-04-08T11:05:31;95676.53;;;15.22;58.48
20624;BME280;10471;42.736;23.346;2023-04-08T11:07:59;95672.50;;;15.38;57.48
20624;BME280;10471;42.736;23.346;2023-04-08T11:10:25;95661.78;;;15.43;57.77
20624;BME280;10471;42.736;23.346;2023-04-08T11:12:53;95657.13;;;15.62;56.66
20624;BME280;10471;42.736;23.346;2023-04-08T11:15:19;95663.31;;;15.71;53.67
20624;BME280;10471;42.736;23.346;2023-04-08T11:17:46;95664.66;;;15.81;54.94
20624;BME280;10471;42.736;23.346;2023-04-08T11:20:12;95653.53;;;15.79;53.21
20624;BME280;10471;42.736;23.346;2023-04-08T11:22:38;95654.94;;;15.64;56.71
20624;BME280;10471;42.736;23.346;2023-04-08T11:25:06;95650.34;;;15.56;55.83
20624;BME280;10471;42.736;23.346;2023-04-08T11:27:33;95652.03;;;15.52;55.89
20624;BME280;10471;42.736;23.346;2023-04-08T11:30:00;95650.50;;;15.24;58.25
20624;BME280;10471;42.736;23.346;2023-04-08T11:32:28;95642.31;;;14.80;56.59
20624;BME280;10471;42.736;23.346;2023-04-08T11:34:54;95629.03;;;14.94;59.20
20624;BME280;10471;42.736;23.346;2023-04-08T11:37:20;95628.06;;;15.30;59.82
20624;BME280;10471;42.736;23.346;2023-04-08T11:39:46;95634.78;;;15.63;55.98
20624;BME280;10471;42.736;23.346;2023-04-08T11:42:30;95624.19;;;16.06;54.23
20624;BME280;10471;42.736;23.346;2023-04-08T11:44:56;95616.50;;;16.48;53.27
20624;BME280;10471;42.736;23.346;2023-04-08T11:47:35;95623.69;;;16.26;48.47
20624;BME280;10471;42.736;23.346;2023-04-08T11:50:02;95618.63;;;15.73;48.14
20624;BME280;10471;42.736;23.346;2023-04-08T11:52:44;95614.69;;;15.70;48.68
20624;BME280;10471;42.736;23.346;2023-04-08T11:55:12;95603.03;;;16.23;49.51
20624;BME280;10471;42.736;23.346;2023-04-08T11:57:47;95601.41;;;16.66;50.02
20624;BME280;10471;42.736;23.346;2023-04-08T12:00:12;95611.28;;;16.74;46.69
20624;BME280;10471;42.736;23.346;2023-04-08T12:02:38;95606.09;;;16.69;48.05
20624;BME280;10471;42.736;23.346;2023-04-08T12:05:04;95606.19;;;16.55;47.63
20624;BME280;10471;42.736;23.346;2023-04-08T12:07:30;95608.72;;;16.60;46.23
20624;BME280;10471;42.736;23.346;2023-04-08T12:09:56;95610.47;;;16.65;46.92
20624;BME280;10471;42.736;23.346;2023-04-08T12:12:22;95598.13;;;16.39;46.04
20624;BME280;10471;42.736;23.346;2023-04-08T12:14:47;95609.44;;;16.00;44.96
20624;BME280;10471;42.736;23.346;2023-04-08T12:17:12;95606.84;;;15.87;44.04
20624;BME280;10471;42.736;23.346;2023-04-08T12:19:38;95599.41;;;15.40;46.10
20624;BME280;10471;42.736;23.346;2023-04-08T12:22:06;95602.16;;;15.49;47.72
20624;BME280;10471;42.736;23.346;2023-04-08T12:24:31;95596.88;;;15.35;48.44
20624;BME280;10471;42.736;23.346;2023-04-08T12:26:57;95600.84;;;14.84;50.65
20624;BME280;10471;42.736;23.346;2023-04-08T12:29:23;95588.06;;;14.73;50.61
20624;BME280;10471;42.736;23.346;2023-04-08T12:31:48;95598.66;;;14.86;52.04
20624;BME280;10471;42.736;23.346;2023-04-08T12:34:13;95605.75;;;14.77;50.13
20624;BME280;10471;42.736;23.346;2023-04-08T12:36:39;95602.13;;;14.73;50.43
20624;BME280;10471;42.736;23.346;2023-04-08T12:39:05;95588.66;;;14.83;49.99
20624;BME280;10471;42.736;23.346;2023-04-08T12:41:31;95591.69;;;15.04;51.02
20624;BME280;10471;42.736;23.346;2023-04-08T12:43:57;95587.63;;;15.19;51.71
20624;BME280;10471;42.736;23.346;2023-04-08T12:46:23;95577.78;;;15.47;50.23
20624;BME280;10471;42.736;23.346;2023-04-08T12:48:48;95584.66;;;15.70;48.47
20624;BME280;10471;42.736;23.346;2023-04-08T12:51:13;95573.06;;;15.87;46.70
20624;BME280;10471;42.736;23.346;2023-04-08T12:53:39;95583.94;;;15.77;47.54
20624;BME280;10471;42.736;23.346;2023-04-08T12:56:04;95581.41;;;15.73;47.74
20624;BME280;10471;42.736;23.346;2023-04-08T12:58:30;95577.16;;;15.50;48.30
20624;BME280;10471;42.736;23.346;2023-04-08T13:00:55;95588.34;;;14.71;51.65
20624;BME280;10471;42.736;23.346;2023-04-08T13:03:21;95600.53;;;14.59;54.25
20624;BME280;10471;42.736;23.346;2023-04-08T13:05:46;95601.66;;;14.13;57.76